createdAt,value
2019-05-22T00:00:32.249Z,12.83
2019-05-22T00:03:01.242Z,12.83
2019-05-22T00:05:33.868Z,12.97
2019-05-22T00:08:05.069Z,12.70
2019-05-22T00:10:34.683Z,12.60
2019-05-22T00:13:07.274Z,12.83
2019-05-22T00:15:38.708Z,12.27
2019-05-22T00:18:09.779Z,13.30
2019-05-22T00:20:39.178Z,12.83
2019-05-22T00:23:10.623Z,12.80
2019-05-22T00:25:40.975Z,12.20
2019-05-22T00:28:10.803Z,12.10
2019-05-22T00:30:44.318Z,13.33
2019-05-22T00:33:14.212Z,12.27
2019-05-22T00:35:44.860Z,12.53
2019-05-22T00:38:15.052Z,12.07
2019-05-22T00:40:47.509Z,12.20
2019-05-22T00:43:39.664Z,12.50
2019-05-22T00:46:11.916Z,11.40
2019-05-22T00:48:43.866Z,10.33
2019-05-22T00:51:29.856Z,10.37
2019-05-22T00:54:16.763Z,11.10
2019-05-22T00:56:54.237Z,10.60
2019-05-22T00:59:29.389Z,10.33
2019-05-22T01:02:02.411Z,10.77
2019-05-22T01:04:35.884Z,10.60
2019-05-22T01:07:09.590Z,11.00
2019-05-22T01:09:41.858Z,11.07
2019-05-22T01:12:19.513Z,12.00
2019-05-22T01:14:50.731Z,11.70
2019-05-22T01:17:21.862Z,11.40
2019-05-22T01:19:54.763Z,10.90
2019-05-22T01:22:25.562Z,11.77
2019-05-22T01:24:57.104Z,12.10
2019-05-22T01:27:27.338Z,12.67
2019-05-22T01:29:57.836Z,12.23
2019-05-22T01:32:47.932Z,12.77
2019-05-22T01:35:19.312Z,12.50
2019-05-22T01:37:48.404Z,12.63
2019-05-22T01:40:32.569Z,12.13
2019-05-22T01:43:03.639Z,12.03
2019-05-22T01:45:33.682Z,12.20
2019-05-22T01:48:10.899Z,13.03
2019-05-22T01:50:51.054Z,14.70
2019-05-22T01:53:23.734Z,13.67
2019-05-22T01:55:58.494Z,13.63
2019-05-22T01:58:30.467Z,13.37
2019-05-22T02:01:00.742Z,13.37
2019-05-22T02:03:32.611Z,13.50
2019-05-22T02:06:01.969Z,13.53
2019-05-22T02:08:33.017Z,13.93
2019-05-22T02:11:03.566Z,14.00
2019-05-22T02:13:40.404Z,14.83
2019-05-22T02:16:11.440Z,14.53
2019-05-22T02:19:00.540Z,13.20
2019-05-22T02:21:30.830Z,14.70
2019-05-22T02:24:00.375Z,14.00
2019-05-22T02:26:30.831Z,14.87
2019-05-22T02:29:01.239Z,15.13
2019-05-22T02:31:30.833Z,15.13
2019-05-22T02:34:02.546Z,16.57
2019-05-22T02:36:34.747Z,15.77
2019-05-22T02:39:07.463Z,14.73
2019-05-22T02:41:43.419Z,14.47
2019-05-22T02:44:12.870Z,15.87
2019-05-22T02:46:42.047Z,14.67
2019-05-22T02:49:14.274Z,16.40
2019-05-22T02:51:43.870Z,15.23
2019-05-22T02:54:14.305Z,15.30
2019-05-22T02:56:43.496Z,15.40
2019-05-22T02:59:15.221Z,14.73
2019-05-22T03:01:45.303Z,16.60
2019-05-22T03:04:16.175Z,15.27
2019-05-22T03:06:45.202Z,15.77
2019-05-22T03:09:22.872Z,15.53
2019-05-22T03:12:01.598Z,13.63
2019-05-22T03:14:32.851Z,16.07
2019-05-22T03:17:05.384Z,15.70
2019-05-22T03:19:38.994Z,16.57
2019-05-22T03:22:29.269Z,16.40
2019-05-22T03:25:01.876Z,15.93
2019-05-22T03:27:38.915Z,16.23
2019-05-22T03:30:13.695Z,16.97
2019-05-22T03:32:44.413Z,15.87
2019-05-22T03:35:14.542Z,16.33
2019-05-22T03:37:43.805Z,16.87
2019-05-22T03:40:13.205Z,17.30
2019-05-22T03:42:42.757Z,16.97
2019-05-22T03:45:13.506Z,16.87
2019-05-22T03:47:43.802Z,16.37
2019-05-22T03:50:13.708Z,16.00
2019-05-22T03:52:43.788Z,15.53
2019-05-22T03:55:14.127Z,17.00
2019-05-22T03:57:44.544Z,17.70
2019-05-22T04:00:17.342Z,17.50
2019-05-22T04:02:50.778Z,16.27
2019-05-22T04:05:20.575Z,17.43
2019-05-22T04:07:51.525Z,16.07
2019-05-22T04:10:21.312Z,16.70
2019-05-22T04:12:51.545Z,17.37
2019-05-22T04:15:22.104Z,17.17
2019-05-22T04:17:53.452Z,17.27
2019-05-22T04:20:23.318Z,16.83
2019-05-22T04:22:59.887Z,16.20
2019-05-22T04:25:29.666Z,17.57
2019-05-22T04:27:58.791Z,15.30
2019-05-22T04:30:28.982Z,16.17
2019-05-22T04:32:58.368Z,16.87
2019-05-22T04:35:28.985Z,17.10
2019-05-22T04:37:58.781Z,17.00
2019-05-22T04:40:58.298Z,15.67
2019-05-22T04:43:31.157Z,16.63
2019-05-22T04:46:02.128Z,16.30
2019-05-22T04:48:34.729Z,15.23
2019-05-22T04:51:25.081Z,15.20
2019-05-22T04:53:55.783Z,14.63
2019-05-22T04:56:26.153Z,14.77
2019-05-22T04:58:55.851Z,15.10
2019-05-22T05:01:25.684Z,14.07
2019-05-22T05:03:54.976Z,13.47
2019-05-22T05:06:26.271Z,14.03
2019-05-22T05:08:56.397Z,14.07
2019-05-22T05:11:26.174Z,14.27
2019-05-22T05:13:55.465Z,14.33
2019-05-22T05:16:24.561Z,14.20
2019-05-22T05:18:54.225Z,13.43
2019-05-22T05:21:23.490Z,12.63
2019-05-22T05:23:52.792Z,14.43
2019-05-22T05:26:22.792Z,14.50
2019-05-22T05:28:52.358Z,14.50
2019-05-22T05:31:22.466Z,13.50
2019-05-22T05:34:21.201Z,13.40
2019-05-22T05:36:50.516Z,15.20
2019-05-22T05:40:09.091Z,14.37
2019-05-22T05:42:38.876Z,14.23
2019-05-22T05:45:13.422Z,13.63
2019-05-22T05:47:41.699Z,14.50
2019-05-22T05:50:13.227Z,12.53
2019-05-22T05:52:42.790Z,13.37
2019-05-22T05:55:13.771Z,13.33
2019-05-22T05:58:24.924Z,13.70
2019-05-22T06:00:57.815Z,12.50
2019-05-22T06:03:32.468Z,11.87
2019-05-22T06:06:09.594Z,13.10
2019-05-22T06:08:39.574Z,12.70
2019-05-22T06:11:45.616Z,13.20
2019-05-22T06:14:23.819Z,12.43
2019-05-22T06:17:33.211Z,12.60
2019-05-22T06:20:06.113Z,12.60
2019-05-22T06:22:35.480Z,13.60
2019-05-22T06:25:06.329Z,12.80
2019-05-22T06:27:44.327Z,12.33
2019-05-22T06:30:17.855Z,12.97
2019-05-22T06:33:28.543Z,12.77
2019-05-22T06:35:57.958Z,12.73
2019-05-22T06:38:48.595Z,12.67
2019-05-22T06:41:18.127Z,13.73
2019-05-22T06:44:11.713Z,12.00
2019-05-22T06:46:46.034Z,11.87
2019-05-22T06:49:53.807Z,12.70
2019-05-22T06:52:23.342Z,11.57
2019-05-22T06:54:52.567Z,12.20
2019-05-22T06:57:39.838Z,12.07
2019-05-22T07:00:21.607Z,12.70
2019-05-22T07:02:51.308Z,12.50
2019-05-22T07:05:20.878Z,12.30
2019-05-22T07:07:50.445Z,11.60
2019-05-22T07:10:20.984Z,12.27
2019-05-22T07:12:51.224Z,12.57
2019-05-22T07:15:34.105Z,13.03
2019-05-22T07:18:05.521Z,11.73
2019-05-22T07:20:37.890Z,11.87
2019-05-22T07:23:08.082Z,11.03
2019-05-22T07:25:41.228Z,12.07
2019-05-22T07:28:10.333Z,10.90
2019-05-22T07:30:39.502Z,10.73
2019-05-22T07:33:09.202Z,10.60
2019-05-22T07:35:50.271Z,10.63
2019-05-22T07:38:09.813Z,10.60
2019-05-22T07:40:39.484Z,11.17
2019-05-22T07:43:08.660Z,10.87
2019-05-22T07:45:37.881Z,11.20
2019-05-22T07:48:07.657Z,11.70
2019-05-22T07:50:48.030Z,10.77
2019-05-22T07:53:15.580Z,10.37
2019-05-22T07:55:45.167Z,10.27
2019-05-22T07:58:16.286Z,10.03
2019-05-22T08:01:00.603Z,10.27
2019-05-22T08:03:31.805Z,8.90
2019-05-22T08:06:01.938Z,10.17
2019-05-22T08:08:35.369Z,9.37
2019-05-22T08:11:05.777Z,9.33
2019-05-22T08:13:35.527Z,8.67
2019-05-22T08:16:04.988Z,8.80
2019-05-22T08:18:38.701Z,8.50
2019-05-22T08:21:08.239Z,9.57
2019-05-22T08:23:37.685Z,7.97
2019-05-22T08:26:08.118Z,7.40
2019-05-22T08:28:39.328Z,7.60
2019-05-22T08:31:10.070Z,11.80
2019-05-22T08:33:39.691Z,7.97
2019-05-22T08:36:09.461Z,11.17
2019-05-22T08:38:39.187Z,8.43
2019-05-22T08:41:09.759Z,7.90
2019-05-22T08:44:03.430Z,7.63
2019-05-22T08:46:12.349Z,7.80
2019-05-22T08:48:47.850Z,7.50
2019-05-22T08:51:15.016Z,7.50
2019-05-22T08:53:48.078Z,9.30
2019-05-22T08:56:16.092Z,8.50
2019-05-22T08:58:47.633Z,8.77
2019-05-22T09:01:16.640Z,7.30
2019-05-22T09:03:46.586Z,7.97
2019-05-22T09:06:16.122Z,7.97
2019-05-22T09:08:45.570Z,7.97
2019-05-22T09:11:15.139Z,6.60
2019-05-22T09:14:03.698Z,7.43
2019-05-22T09:16:32.639Z,10.30
2019-05-22T09:19:02.569Z,9.70
2019-05-22T09:21:32.615Z,7.80
2019-05-22T09:24:02.084Z,6.70
2019-05-22T09:26:32.713Z,6.87
2019-05-22T09:29:02.597Z,8.07
2019-05-22T09:31:31.964Z,7.27
2019-05-22T09:34:01.233Z,5.50
2019-05-22T09:36:30.423Z,5.90
2019-05-22T09:38:59.620Z,5.60
2019-05-22T09:41:28.436Z,5.03
2019-05-22T09:43:57.632Z,5.30
2019-05-22T09:46:27.600Z,5.43
2019-05-22T09:48:57.694Z,4.70
2019-05-22T09:51:26.640Z,4.53
2019-05-22T09:53:56.845Z,5.17
2019-05-22T09:56:26.135Z,4.83
2019-05-22T09:58:55.652Z,4.93
2019-05-22T10:01:24.899Z,4.97
2019-05-22T10:03:54.106Z,4.90
2019-05-22T10:06:23.349Z,4.73
2019-05-22T10:08:52.461Z,5.13
2019-05-22T10:11:22.111Z,5.10
2019-05-22T10:13:51.458Z,5.13
2019-05-22T10:16:20.866Z,4.70
2019-05-22T10:18:52.982Z,4.63
2019-05-22T10:21:21.854Z,4.10
2019-05-22T10:23:51.237Z,4.33
2019-05-22T10:26:20.378Z,4.03
2019-05-22T10:28:49.421Z,4.97
2019-05-22T10:31:21.680Z,4.77
2019-05-22T10:33:51.921Z,5.23
2019-05-22T10:36:20.476Z,4.87
2019-05-22T10:38:49.624Z,5.10
2019-05-22T10:41:21.005Z,4.30
2019-05-22T10:43:51.148Z,4.40
2019-05-22T10:46:20.484Z,4.70
2019-05-22T10:48:50.043Z,4.77
2019-05-22T10:51:19.159Z,3.90
2019-05-22T10:53:48.540Z,4.33
2019-05-22T10:56:18.124Z,4.63
2019-05-22T10:58:47.955Z,3.80
2019-05-22T11:01:16.761Z,3.80
2019-05-22T11:03:46.760Z,3.57
2019-05-22T11:06:16.567Z,3.87
2019-05-22T11:08:45.925Z,3.33
2019-05-22T11:11:16.886Z,3.50
2019-05-22T11:14:00.725Z,3.40
2019-05-22T11:16:18.038Z,3.50
2019-05-22T11:18:47.092Z,3.40
2019-05-22T11:21:16.587Z,3.10
2019-05-22T11:23:51.874Z,3.33
2019-05-22T11:26:17.708Z,2.90
2019-05-22T11:28:47.621Z,3.17
2019-05-22T11:31:18.594Z,3.20
2019-05-22T11:33:47.454Z,3.43
2019-05-22T11:36:18.051Z,3.30
2019-05-22T11:38:47.562Z,3.07
2019-05-22T11:41:18.865Z,3.33
2019-05-22T11:43:47.826Z,2.90
2019-05-22T11:46:18.007Z,2.97
2019-05-22T11:48:47.896Z,2.77
2019-05-22T11:51:17.869Z,3.50
2019-05-22T11:53:46.940Z,3.10
2019-05-22T11:56:16.387Z,3.20
2019-05-22T11:58:45.579Z,3.47
2019-05-22T12:01:15.181Z,3.20
2019-05-22T12:03:44.565Z,3.30
2019-05-22T12:06:14.600Z,3.50
2019-05-22T12:08:45.374Z,3.10
2019-05-22T12:11:18.485Z,2.90
2019-05-22T12:13:48.425Z,3.03
2019-05-22T12:16:17.688Z,3.03
2019-05-22T12:18:48.818Z,3.10
2019-05-22T12:21:18.521Z,3.27
2019-05-22T12:23:47.696Z,3.63
2019-05-22T12:26:17.544Z,3.50
2019-05-22T12:28:46.774Z,3.23
2019-05-22T12:31:16.027Z,3.03
2019-05-22T12:33:45.298Z,3.90
2019-05-22T12:36:14.383Z,3.30
2019-05-22T12:38:44.560Z,3.33
2019-05-22T12:41:15.457Z,3.07
2019-05-22T12:43:45.109Z,3.80
2019-05-22T12:46:14.880Z,3.70
2019-05-22T12:48:45.129Z,3.57
2019-05-22T12:51:16.257Z,3.90
2019-05-22T12:53:46.610Z,3.20
2019-05-22T12:56:16.014Z,3.40
2019-05-22T12:58:46.383Z,3.17
2019-05-22T13:01:15.641Z,3.30
2019-05-22T13:03:45.635Z,2.80
2019-05-22T13:06:15.003Z,2.80
2019-05-22T13:08:44.315Z,3.30
2019-05-22T13:11:14.387Z,2.90
2019-05-22T13:13:43.510Z,3.13
2019-05-22T13:16:13.222Z,2.97
2019-05-22T13:18:42.770Z,2.90
2019-05-22T13:21:15.274Z,3.00
2019-05-22T13:23:45.854Z,2.60
2019-05-22T13:26:15.874Z,2.57
2019-05-22T13:28:47.254Z,2.60
2019-05-22T13:31:16.833Z,2.83
2019-05-22T13:33:46.544Z,3.60
2019-05-22T13:36:18.732Z,2.53
2019-05-22T13:38:48.443Z,2.50
2019-05-22T13:41:17.443Z,2.80
2019-05-22T13:43:47.411Z,2.83
2019-05-22T13:46:16.803Z,2.47
2019-05-22T13:48:45.645Z,2.30
2019-05-22T13:51:15.396Z,2.53
2019-05-22T13:53:45.164Z,2.93
2019-05-22T13:56:15.260Z,2.23
2019-05-22T13:58:45.503Z,2.23
2019-05-22T14:01:14.626Z,2.20
2019-05-22T14:03:44.098Z,2.27
2019-05-22T14:06:13.170Z,2.00
2019-05-22T14:08:42.672Z,2.57
2019-05-22T14:11:12.624Z,3.00
2019-05-22T14:13:42.427Z,2.40
2019-05-22T14:16:12.212Z,2.23
2019-05-22T14:18:41.460Z,1.80
2019-05-22T14:21:10.509Z,1.70
2019-05-22T14:23:39.784Z,1.80
2019-05-22T14:26:09.833Z,2.10
2019-05-22T14:28:39.584Z,1.50
2019-05-22T14:31:09.013Z,1.90
2019-05-22T14:33:40.613Z,2.00
2019-05-22T14:36:09.481Z,1.90
2019-05-22T14:38:38.670Z,2.13
2019-05-22T14:41:08.442Z,1.83
2019-05-22T14:43:37.735Z,2.00
2019-05-22T14:46:06.964Z,2.03
2019-05-22T14:48:55.490Z,2.40
2019-05-22T14:51:25.550Z,2.33
2019-05-22T14:53:57.306Z,2.20
2019-05-22T14:56:26.550Z,2.50
2019-05-22T14:58:56.443Z,2.00
2019-05-22T15:01:26.475Z,2.60
2019-05-22T15:03:56.157Z,2.50
2019-05-22T15:06:25.861Z,1.80
2019-05-22T15:08:55.329Z,2.37
2019-05-22T15:11:24.994Z,1.73
2019-05-22T15:13:54.811Z,1.57
2019-05-22T15:16:24.029Z,1.90
2019-05-22T15:18:53.929Z,2.27
2019-05-22T15:21:23.891Z,1.97
2019-05-22T15:23:54.650Z,2.50
2019-05-22T15:26:23.734Z,2.20
2019-05-22T15:28:52.591Z,2.57
2019-05-22T15:31:22.369Z,2.30
2019-05-22T15:33:51.511Z,2.20
2019-05-22T15:36:24.019Z,2.43
2019-05-22T15:38:53.967Z,2.37
2019-05-22T15:41:23.751Z,2.50
2019-05-22T15:43:54.000Z,2.47
2019-05-22T15:46:24.656Z,2.23
2019-05-22T15:48:56.132Z,2.27
2019-05-22T15:51:31.861Z,2.07
2019-05-22T15:54:03.381Z,2.20
2019-05-22T15:56:35.390Z,2.17
2019-05-22T15:59:05.929Z,2.10
2019-05-22T16:01:37.061Z,1.97
2019-05-22T16:04:09.378Z,2.47
2019-05-22T16:06:39.380Z,2.07
2019-05-22T16:09:13.180Z,2.17
2019-05-22T16:11:43.129Z,2.27
2019-05-22T16:14:14.986Z,1.90
2019-05-22T16:16:45.847Z,2.30
2019-05-22T16:19:18.659Z,2.70
2019-05-22T16:22:11.599Z,2.93
2019-05-22T16:24:40.974Z,2.60
2019-05-22T16:27:12.589Z,2.53
2019-05-22T16:29:42.207Z,2.60
2019-05-22T16:32:14.689Z,2.90
2019-05-22T16:34:44.812Z,2.30
2019-05-22T16:37:14.503Z,2.43
2019-05-22T16:39:44.233Z,2.20
2019-05-22T16:42:13.433Z,2.60
2019-05-22T16:44:43.621Z,2.03
2019-05-22T16:47:13.006Z,1.90
2019-05-22T16:49:43.221Z,1.97
2019-05-22T16:52:14.367Z,2.00
2019-05-22T16:54:45.596Z,2.17
2019-05-22T16:57:15.186Z,2.07
2019-05-22T16:59:45.931Z,2.10
2019-05-22T17:02:17.010Z,1.80
2019-05-22T17:04:47.531Z,2.30
2019-05-22T17:07:17.538Z,1.80
2019-05-22T17:09:47.275Z,2.53
2019-05-22T17:12:18.132Z,2.47
2019-05-22T17:14:49.168Z,2.10
2019-05-22T17:17:19.429Z,2.23
2019-05-22T17:19:48.970Z,2.30
2019-05-22T17:22:19.082Z,2.20
2019-05-22T17:24:48.346Z,2.30
2019-05-22T17:27:18.947Z,2.93
2019-05-22T17:29:50.765Z,2.30
2019-05-22T17:32:20.675Z,2.57
2019-05-22T17:34:50.576Z,2.60
2019-05-22T17:37:21.587Z,2.20
2019-05-22T17:39:51.986Z,2.17
2019-05-22T17:42:24.912Z,2.17
2019-05-22T17:44:55.426Z,2.10
2019-05-22T17:47:26.453Z,2.40
2019-05-22T17:49:56.022Z,2.33
2019-05-22T17:52:26.096Z,1.80
2019-05-22T17:54:56.838Z,2.57
2019-05-22T17:57:26.758Z,2.00
2019-05-22T17:59:55.907Z,2.47
2019-05-22T18:02:29.763Z,1.83
2019-05-22T18:04:59.486Z,2.33
2019-05-22T18:07:29.490Z,2.20
2019-05-22T18:09:59.054Z,2.07
2019-05-22T18:12:28.208Z,1.80
2019-05-22T18:14:57.265Z,1.90
2019-05-22T18:17:27.377Z,2.80
2019-05-22T18:19:56.633Z,2.27
2019-05-22T18:22:26.522Z,2.00
2019-05-22T18:24:56.010Z,2.10
2019-05-22T18:27:25.572Z,2.27
2019-05-22T18:29:55.024Z,2.13
2019-05-22T18:32:24.393Z,2.70
2019-05-22T18:34:53.497Z,2.07
2019-05-22T18:37:22.392Z,2.03
2019-05-22T18:39:51.580Z,2.10
2019-05-22T18:42:21.319Z,1.67
2019-05-22T18:44:51.011Z,1.60
2019-05-22T18:47:20.430Z,1.90
2019-05-22T18:49:49.572Z,1.67
2019-05-22T18:52:18.934Z,2.10
2019-05-22T18:54:48.134Z,2.23
2019-05-22T18:57:17.395Z,2.10
2019-05-22T18:59:47.039Z,1.63
2019-05-22T19:02:16.534Z,2.20
2019-05-22T19:04:45.731Z,2.10
2019-05-22T19:07:14.806Z,2.13
2019-05-22T19:09:43.847Z,2.70
2019-05-22T19:12:13.877Z,2.43
2019-05-22T19:14:44.472Z,2.23
2019-05-22T19:17:13.376Z,2.40
2019-05-22T19:19:42.243Z,2.73
2019-05-22T19:22:11.383Z,2.43
2019-05-22T19:24:40.632Z,2.40
2019-05-22T19:27:09.699Z,2.57
2019-05-22T19:29:39.197Z,2.40
2019-05-22T19:32:08.263Z,2.17
2019-05-22T19:34:37.100Z,2.40
2019-05-22T19:37:06.153Z,2.77
2019-05-22T19:39:36.071Z,2.30
2019-05-22T19:42:05.873Z,2.10
2019-05-22T19:44:35.018Z,2.80
2019-05-22T19:47:05.261Z,2.57
2019-05-22T19:49:35.238Z,2.40
2019-05-22T19:52:05.011Z,2.40
2019-05-22T19:54:34.558Z,2.30
2019-05-22T19:57:04.564Z,2.43
2019-05-22T19:59:34.274Z,2.40
2019-05-22T20:02:04.164Z,3.40
2019-05-22T20:04:33.667Z,3.83
2019-05-22T20:07:02.476Z,3.37
2019-05-22T20:09:31.672Z,3.57
2019-05-22T20:12:01.611Z,3.70
2019-05-22T20:14:30.871Z,3.63
2019-05-22T20:17:00.348Z,4.33
2019-05-22T20:19:30.145Z,4.17
2019-05-22T20:22:00.528Z,3.77
2019-05-22T20:24:30.441Z,3.60
2019-05-22T20:27:00.225Z,3.63
2019-05-22T20:29:29.788Z,3.00
2019-05-22T20:31:59.046Z,2.93
2019-05-22T20:34:28.686Z,3.10
2019-05-22T20:36:58.211Z,3.03
2019-05-22T20:39:29.550Z,2.93
2019-05-22T20:41:58.452Z,3.00
2019-05-22T20:44:28.872Z,3.00
2019-05-22T20:46:58.417Z,3.20
2019-05-22T20:49:29.368Z,3.70
2019-05-22T20:51:59.105Z,3.30
2019-05-22T20:54:30.304Z,3.73
2019-05-22T20:57:00.637Z,4.27
2019-05-22T20:59:30.905Z,4.20
2019-05-22T21:02:01.142Z,3.73
2019-05-22T21:04:33.542Z,3.60
2019-05-22T21:07:07.123Z,3.80
2019-05-22T21:09:37.612Z,3.73
2019-05-22T21:12:06.776Z,2.97
2019-05-22T21:15:12.303Z,3.47
2019-05-22T21:17:42.184Z,3.23
2019-05-22T21:20:15.543Z,3.07
2019-05-22T21:22:46.081Z,2.47
2019-05-22T21:25:16.430Z,3.00
2019-05-22T21:27:45.819Z,3.70
2019-05-22T21:30:15.500Z,3.13
2019-05-22T21:32:45.282Z,3.43
2019-05-22T21:35:16.462Z,3.40
2019-05-22T21:37:46.213Z,3.67
2019-05-22T21:40:17.834Z,3.53
2019-05-22T21:42:47.616Z,3.23
2019-05-22T21:45:17.029Z,3.63
2019-05-22T21:47:45.948Z,4.00
2019-05-22T21:50:16.502Z,3.77
2019-05-22T21:52:45.475Z,4.13
2019-05-22T21:55:16.175Z,3.90
2019-05-22T21:57:46.117Z,3.70
2019-05-22T22:00:22.272Z,3.53
2019-05-22T22:02:52.557Z,3.77
2019-05-22T22:05:22.273Z,3.80
2019-05-22T22:07:52.738Z,3.80
2019-05-22T22:10:22.592Z,3.60
2019-05-22T22:12:53.952Z,3.70
2019-05-22T22:15:43.784Z,3.70
2019-05-22T22:18:14.429Z,3.47
2019-05-22T22:20:43.483Z,4.30
2019-05-22T22:23:14.648Z,4.00
2019-05-22T22:25:44.108Z,4.57
2019-05-22T22:28:16.337Z,4.67
2019-05-22T22:30:52.291Z,4.53
2019-05-22T22:33:25.252Z,4.30
2019-05-22T22:35:56.048Z,4.00
2019-05-22T22:38:26.819Z,4.00
2019-05-22T22:40:56.970Z,3.80
2019-05-22T22:43:31.103Z,4.40
2019-05-22T22:46:18.363Z,5.10
2019-05-22T22:48:50.176Z,4.17
2019-05-22T22:51:20.204Z,3.80
2019-05-22T22:53:50.153Z,3.53
2019-05-22T22:56:21.072Z,4.50
2019-05-22T22:58:50.474Z,4.53
2019-05-22T23:01:27.612Z,4.70
2019-05-22T23:03:58.498Z,4.67
2019-05-22T23:06:27.625Z,4.77
2019-05-22T23:08:56.463Z,4.80
2019-05-22T23:11:27.830Z,4.60
2019-05-22T23:13:57.230Z,4.07
2019-05-22T23:16:27.751Z,4.70
2019-05-22T23:19:38.077Z,4.37
2019-05-22T23:22:26.970Z,4.40
2019-05-22T23:24:59.490Z,4.40
2019-05-22T23:27:29.141Z,4.67
2019-05-22T23:29:59.873Z,4.20
2019-05-22T23:32:29.483Z,4.13
2019-05-22T23:34:59.394Z,4.17
2019-05-22T23:37:28.839Z,4.23
2019-05-22T23:39:59.265Z,4.80
2019-05-22T23:42:34.310Z,4.40
2019-05-22T23:45:06.886Z,4.70
2019-05-22T23:47:41.308Z,4.17
2019-05-22T23:50:10.422Z,4.20
2019-05-22T23:52:39.763Z,4.37
2019-05-22T23:55:10.513Z,4.07
2019-05-22T23:57:39.704Z,4.43
